PWSweather.com
Personal Weather Stations
Station Observations
IONTARIO88
Lincoln, ON L0R

Lincoln, ON L0R

Lat: 43.1763563, Lon: -79.4719525

Elevation: 297

Station Type: Davis Vantage Pro 2 Plus

http://www.beamsvillewx.ca

High Low Average
Temperature 32.7°F0.4°C 15.3°F-9.3°C 22.4°F-5.3°C
Dew Point 24.7°F-4.1°C 6.3°F-14.3°C 14.9°F-9.5°C
Winds 11.0 mph 17.7 kmh 4.0 mph 6.4 kmh 7.0 mph SW11.3 kmh SW
Wind Gusts 28.0 mph45.1 kmh 9.0 mph14.5 kmh 16.0 mph25.7 kmh
Humidity 86% 57% 73%
Pressure 30.30 in1026.1 mb 29.88 in1011.9 mb -
Precipitation 0.00 in0.0 mm - -
Hour Temp Dew Point Humidity Winds Wind Gusts Pressure Precip Precip Rate Daily Precip Total
12:00 AM 16.3°F-8.7°C 7.3°F-13.7°C 67% 3.0 mph SW4.8 kmh SW 9.0 mph14.5 kmh 30.31 in1026.4 mb 0.00 in0.0 mm 0.00 in0.0 mm 0.00 in0.0 mm
12:15 AM 16.2°F-8.8°C 7.4°F-13.7°C 68% 2.0 mph SW3.2 kmh SW 7.0 mph11.3 kmh 30.31 in1026.4 mb 0.00 in0.0 mm 0.00 in0.0 mm 0.00 in0.0 mm
12:30 AM 16.0°F-8.9°C 7.6°F-13.6°C 69% 3.0 mph SW4.8 kmh SW 7.0 mph11.3 kmh 30.31 in1026.4 mb 0.00 in0.0 mm 0.00 in0.0 mm 0.00 in0.0 mm
12:45 AM 15.8°F-9.0°C 7.1°F-13.8°C 68% 4.0 mph SW6.4 kmh SW 8.0 mph12.9 kmh 30.30 in1026.1 mb 0.00 in0.0 mm 0.00 in0.0 mm 0.00 in0.0 mm
01:00 AM 16.0°F-8.9°C 6.6°F-14.1°C 66% 4.0 mph SW6.4 kmh SW 10.0 mph16.1 kmh 30.30 in1026.1 mb 0.00 in0.0 mm 0.00 in0.0 mm 0.00 in0.0 mm
01:15 AM 16.3°F-8.7°C 7.0°F-13.9°C 66% 4.0 mph WSW6.4 kmh WSW 11.0 mph17.7 kmh 30.30 in1026.1 mb 0.00 in0.0 mm 0.00 in0.0 mm 0.00 in0.0 mm
01:30 AM 16.7°F-8.5°C 7.0°F-13.9°C 65% 6.0 mph WSW9.7 kmh WSW 15.0 mph24.1 kmh 30.30 in1026.1 mb 0.00 in0.0 mm 0.00 in0.0 mm 0.00 in0.0 mm
01:45 AM 16.9°F-8.4°C 7.1°F-13.8°C 65% 4.0 mph WSW6.4 kmh WSW 10.0 mph16.1 kmh 30.30 in1026.1 mb 0.00 in0.0 mm 0.00 in0.0 mm 0.00 in0.0 mm
02:00 AM 17.1°F-8.3°C 7.3°F-13.7°C 65% 5.0 mph WSW8.0 kmh WSW 14.0 mph22.5 kmh 30.30 in1026.1 mb 0.00 in0.0 mm 0.00 in0.0 mm 0.00 in0.0 mm
02:15 AM 17.1°F-8.3°C 7.0°F-13.9°C 64% 5.0 mph WSW8.0 kmh WSW 13.0 mph20.9 kmh 30.29 in1025.7 mb 0.00 in0.0 mm 0.00 in0.0 mm 0.00 in0.0 mm
02:30 AM 16.5°F-8.6°C 6.8°F-14.0°C 65% 6.0 mph WSW9.7 kmh WSW 12.0 mph19.3 kmh 30.29 in1025.7 mb 0.00 in0.0 mm 0.00 in0.0 mm 0.00 in0.0 mm
02:45 AM 16.3°F-8.7°C 6.6°F-14.1°C 65% 4.0 mph WSW6.4 kmh WSW 9.0 mph14.5 kmh 30.29 in1025.7 mb 0.00 in0.0 mm 0.00 in0.0 mm 0.00 in0.0 mm
03:00 AM 16.0°F-8.9°C 6.3°F-14.3°C 65% 4.0 mph WSW6.4 kmh WSW 10.0 mph16.1 kmh 30.29 in1025.7 mb 0.00 in0.0 mm 0.00 in0.0 mm 0.00 in0.0 mm
03:15 AM 15.8°F-9.0°C 6.4°F-14.2°C 66% 4.0 mph WSW6.4 kmh WSW 10.0 mph16.1 kmh 30.29 in1025.7 mb 0.00 in0.0 mm 0.00 in0.0 mm 0.00 in0.0 mm
03:30 AM 15.6°F-9.1°C 6.6°F-14.1°C 67% 4.0 mph WSW6.4 kmh WSW 11.0 mph17.7 kmh 30.29 in1025.7 mb 0.00 in0.0 mm 0.00 in0.0 mm 0.00 in0.0 mm
03:45 AM 15.4°F-9.2°C 6.4°F-14.2°C 67% 5.0 mph WSW8.0 kmh WSW 13.0 mph20.9 kmh 30.29 in1025.7 mb 0.00 in0.0 mm 0.00 in0.0 mm 0.00 in0.0 mm
04:00 AM 15.6°F-9.1°C 6.6°F-14.1°C 67% 6.0 mph WSW9.7 kmh WSW 15.0 mph24.1 kmh 30.29 in1025.7 mb 0.00 in0.0 mm 0.00 in0.0 mm 0.00 in0.0 mm
04:15 AM 16.0°F-8.9°C 6.6°F-14.1°C 66% 8.0 mph W12.9 kmh W 18.0 mph29.0 kmh 30.29 in1025.7 mb 0.00 in0.0 mm 0.00 in0.0 mm 0.00 in0.0 mm
04:30 AM 16.0°F-8.9°C 6.6°F-14.1°C 66% 7.0 mph WSW11.3 kmh WSW 15.0 mph24.1 kmh 30.29 in1025.7 mb 0.00 in0.0 mm 0.00 in0.0 mm 0.00 in0.0 mm
04:45 AM 15.8°F-9.0°C 6.8°F-14.0°C 67% 6.0 mph W9.7 kmh W 12.0 mph19.3 kmh 30.29 in1025.7 mb 0.00 in0.0 mm 0.00 in0.0 mm 0.00 in0.0 mm
05:00 AM 15.6°F-9.1°C 6.6°F-14.1°C 67% 5.0 mph WSW8.0 kmh WSW 15.0 mph24.1 kmh 30.29 in1025.7 mb 0.00 in0.0 mm 0.00 in0.0 mm 0.00 in0.0 mm
05:15 AM 15.6°F-9.1°C 6.6°F-14.1°C 67% 4.0 mph WSW6.4 kmh WSW 12.0 mph19.3 kmh 30.28 in1025.4 mb 0.00 in0.0 mm 0.00 in0.0 mm 0.00 in0.0 mm
05:30 AM 15.8°F-9.0°C 6.4°F-14.2°C 66% 5.0 mph WSW8.0 kmh WSW 12.0 mph19.3 kmh 30.28 in1025.4 mb 0.00 in0.0 mm 0.00 in0.0 mm 0.00 in0.0 mm
05:45 AM 15.8°F-9.0°C 6.4°F-14.2°C 66% 5.0 mph WSW8.0 kmh WSW 14.0 mph22.5 kmh 30.28 in1025.4 mb 0.00 in0.0 mm 0.00 in0.0 mm 0.00 in0.0 mm
06:00 AM 15.8°F-9.0°C 6.8°F-14.0°C 67% 5.0 mph SW8.0 kmh SW 11.0 mph17.7 kmh 30.27 in1025.1 mb 0.00 in0.0 mm 0.00 in0.0 mm 0.00 in0.0 mm
06:15 AM 15.6°F-9.1°C 6.6°F-14.1°C 67% 4.0 mph SW6.4 kmh SW 10.0 mph16.1 kmh 30.27 in1025.1 mb 0.00 in0.0 mm 0.00 in0.0 mm 0.00 in0.0 mm
06:30 AM 15.4°F-9.2°C 6.8°F-14.0°C 68% 5.0 mph SW8.0 kmh SW 13.0 mph20.9 kmh 30.28 in1025.4 mb 0.00 in0.0 mm 0.00 in0.0 mm 0.00 in0.0 mm
06:45 AM 15.3°F-9.3°C 6.6°F-14.1°C 68% 5.0 mph SW8.0 kmh SW 10.0 mph16.1 kmh 30.27 in1025.1 mb 0.00 in0.0 mm 0.00 in0.0 mm 0.00 in0.0 mm
07:00 AM 15.3°F-9.3°C 6.9°F-13.9°C 69% 5.0 mph SW8.0 kmh SW 12.0 mph19.3 kmh 30.28 in1025.4 mb 0.00 in0.0 mm 0.00 in0.0 mm 0.00 in0.0 mm
07:15 AM 15.3°F-9.3°C 7.2°F-13.8°C 70% 6.0 mph SW9.7 kmh SW 13.0 mph20.9 kmh 30.28 in1025.4 mb 0.00 in0.0 mm 0.00 in0.0 mm 0.00 in0.0 mm
07:30 AM 15.4°F-9.2°C 8.3°F-13.2°C 73% 7.0 mph SW11.3 kmh SW 15.0 mph24.1 kmh 30.28 in1025.4 mb 0.00 in0.0 mm 0.00 in0.0 mm 0.00 in0.0 mm
07:45 AM 15.4°F-9.2°C 9.2°F-12.7°C 76% 7.0 mph SW11.3 kmh SW 15.0 mph24.1 kmh 30.28 in1025.4 mb 0.00 in0.0 mm 0.00 in0.0 mm 0.00 in0.0 mm
08:00 AM 15.8°F-9.0°C 9.9°F-12.3°C 77% 7.0 mph SW11.3 kmh SW 15.0 mph24.1 kmh 30.28 in1025.4 mb 0.00 in0.0 mm 0.00 in0.0 mm 0.00 in0.0 mm
08:15 AM 16.0°F-8.9°C 10.6°F-11.9°C 79% 8.0 mph SW12.9 kmh SW 17.0 mph27.4 kmh 30.27 in1025.1 mb 0.00 in0.0 mm 0.00 in0.0 mm 0.00 in0.0 mm
08:30 AM 16.2°F-8.8°C 11.1°F-11.6°C 80% 8.0 mph SW12.9 kmh SW 14.0 mph22.5 kmh 30.28 in1025.4 mb 0.00 in0.0 mm 0.00 in0.0 mm 0.00 in0.0 mm
08:45 AM 16.3°F-8.7°C 11.5°F-11.4°C 81% 6.0 mph SW9.7 kmh SW 14.0 mph22.5 kmh 30.28 in1025.4 mb 0.00 in0.0 mm 0.00 in0.0 mm 0.00 in0.0 mm
09:00 AM 16.7°F-8.5°C 12.4°F-10.9°C 83% 5.0 mph SW8.0 kmh SW 15.0 mph24.1 kmh 30.27 in1025.1 mb 0.00 in0.0 mm 0.00 in0.0 mm 0.00 in0.0 mm
09:15 AM 17.2°F-8.2°C 13.0°F-10.6°C 83% 6.0 mph SW9.7 kmh SW 13.0 mph20.9 kmh 30.27 in1025.1 mb 0.00 in0.0 mm 0.00 in0.0 mm 0.00 in0.0 mm
09:30 AM 18.0°F-7.8°C 13.4°F-10.3°C 82% 6.0 mph SW9.7 kmh SW 13.0 mph20.9 kmh 30.27 in1025.1 mb 0.00 in0.0 mm 0.00 in0.0 mm 0.00 in0.0 mm
09:45 AM 18.7°F-7.4°C 13.8°F-10.1°C 81% 6.0 mph SW9.7 kmh SW 14.0 mph22.5 kmh 30.28 in1025.4 mb 0.00 in0.0 mm 0.00 in0.0 mm 0.00 in0.0 mm
10:00 AM 19.4°F-7.0°C 14.2°F-9.9°C 80% 8.0 mph SW12.9 kmh SW 16.0 mph25.7 kmh 30.27 in1025.1 mb 0.00 in0.0 mm 0.00 in0.0 mm 0.00 in0.0 mm
10:15 AM 19.9°F-6.7°C 14.8°F-9.6°C 80% 7.0 mph SW11.3 kmh SW 15.0 mph24.1 kmh 30.27 in1025.1 mb 0.00 in0.0 mm 0.00 in0.0 mm 0.00 in0.0 mm
10:30 AM 20.7°F-6.3°C 15.5°F-9.2°C 80% 7.0 mph SW11.3 kmh SW 16.0 mph25.7 kmh 30.27 in1025.1 mb 0.00 in0.0 mm 0.00 in0.0 mm 0.00 in0.0 mm
10:45 AM 21.6°F-5.8°C 16.1°F-8.8°C 79% 6.0 mph SW9.7 kmh SW 15.0 mph24.1 kmh 30.26 in1024.7 mb 0.00 in0.0 mm 0.00 in0.0 mm 0.00 in0.0 mm
11:00 AM 21.6°F-5.8°C 15.8°F-9.0°C 78% 8.0 mph SW12.9 kmh SW 19.0 mph30.6 kmh 30.26 in1024.7 mb 0.00 in0.0 mm 0.00 in0.0 mm 0.00 in0.0 mm
11:15 AM 21.9°F-5.6°C 16.1°F-8.8°C 78% 7.0 mph SW11.3 kmh SW 14.0 mph22.5 kmh 30.26 in1024.7 mb 0.00 in0.0 mm 0.00 in0.0 mm 0.00 in0.0 mm
11:30 AM 22.8°F-5.1°C 16.4°F-8.7°C 76% 7.0 mph SW11.3 kmh SW 20.0 mph32.2 kmh 30.26 in1024.7 mb 0.00 in0.0 mm 0.00 in0.0 mm 0.00 in0.0 mm
11:45 AM 22.6°F-5.2°C 16.2°F-8.8°C 76% 9.0 mph SW14.5 kmh SW 18.0 mph29.0 kmh 30.26 in1024.7 mb 0.00 in0.0 mm 0.00 in0.0 mm 0.00 in0.0 mm
12:00 PM 23.0°F-5.0°C 16.3°F-8.7°C 75% 9.0 mph SW14.5 kmh SW 24.0 mph38.6 kmh 30.25 in1024.4 mb 0.00 in0.0 mm 0.00 in0.0 mm 0.00 in0.0 mm
12:15 PM 23.5°F-4.7°C 16.5°F-8.6°C 74% 9.0 mph SW14.5 kmh SW 21.0 mph33.8 kmh 30.25 in1024.4 mb 0.00 in0.0 mm 0.00 in0.0 mm 0.00 in0.0 mm
12:30 PM 23.7°F-4.6°C 17.0°F-8.3°C 75% 9.0 mph SW14.5 kmh SW 20.0 mph32.2 kmh 30.24 in1024.0 mb 0.00 in0.0 mm 0.00 in0.0 mm 0.00 in0.0 mm
12:45 PM 24.1°F-4.4°C 17.0°F-8.3°C 74% 9.0 mph SW14.5 kmh SW 20.0 mph32.2 kmh 30.23 in1023.7 mb 0.00 in0.0 mm 0.00 in0.0 mm 0.00 in0.0 mm
01:00 PM 25.0°F-3.9°C 16.9°F-8.4°C 71% 10.0 mph SW16.1 kmh SW 22.0 mph35.4 kmh 30.23 in1023.7 mb 0.00 in0.0 mm 0.00 in0.0 mm 0.00 in0.0 mm
01:15 PM 24.6°F-4.1°C 16.6°F-8.6°C 71% 8.0 mph SW12.9 kmh SW 21.0 mph33.8 kmh 30.21 in1023.0 mb 0.00 in0.0 mm 0.00 in0.0 mm 0.00 in0.0 mm
01:30 PM 24.3°F-4.3°C 16.5°F-8.6°C 72% 8.0 mph SW12.9 kmh SW 21.0 mph33.8 kmh 30.21 in1023.0 mb 0.00 in0.0 mm 0.00 in0.0 mm 0.00 in0.0 mm
01:45 PM 23.9°F-4.5°C 16.2°F-8.8°C 72% 8.0 mph SW12.9 kmh SW 17.0 mph27.4 kmh 30.20 in1022.7 mb 0.00 in0.0 mm 0.00 in0.0 mm 0.00 in0.0 mm
02:00 PM 24.4°F-4.2°C 16.1°F-8.8°C 70% 8.0 mph SW12.9 kmh SW 22.0 mph35.4 kmh 30.20 in1022.7 mb 0.00 in0.0 mm 0.00 in0.0 mm 0.00 in0.0 mm
02:15 PM 25.2°F-3.8°C 16.7°F-8.5°C 70% 9.0 mph SW14.5 kmh SW 20.0 mph32.2 kmh 30.19 in1022.4 mb 0.00 in0.0 mm 0.00 in0.0 mm 0.00 in0.0 mm
02:30 PM 25.5°F-3.6°C 16.1°F-8.8°C 67% 9.0 mph SW14.5 kmh SW 24.0 mph38.6 kmh 30.18 in1022.0 mb 0.00 in0.0 mm 0.00 in0.0 mm 0.00 in0.0 mm
02:45 PM 25.2°F-3.8°C 15.7°F-9.1°C 67% 10.0 mph SW16.1 kmh SW 21.0 mph33.8 kmh 30.17 in1021.7 mb 0.00 in0.0 mm 0.00 in0.0 mm 0.00 in0.0 mm
03:00 PM 25.0°F-3.9°C 15.2°F-9.3°C 66% 10.0 mph SW16.1 kmh SW 28.0 mph45.1 kmh 30.17 in1021.7 mb 0.00 in0.0 mm 0.00 in0.0 mm 0.00 in0.0 mm
03:15 PM 25.5°F-3.6°C 15.7°F-9.1°C 66% 6.0 mph SW9.7 kmh SW 17.0 mph27.4 kmh 30.16 in1021.3 mb 0.00 in0.0 mm 0.00 in0.0 mm 0.00 in0.0 mm
03:30 PM 25.7°F-3.5°C 15.9°F-8.9°C 66% 7.0 mph SW11.3 kmh SW 21.0 mph33.8 kmh 30.15 in1021.0 mb 0.00 in0.0 mm 0.00 in0.0 mm 0.00 in0.0 mm
03:45 PM 25.2°F-3.8°C 16.1°F-8.8°C 68% 9.0 mph SW14.5 kmh SW 18.0 mph29.0 kmh 30.14 in1020.7 mb 0.00 in0.0 mm 0.00 in0.0 mm 0.00 in0.0 mm
04:00 PM 25.2°F-3.8°C 16.7°F-8.5°C 70% 7.0 mph SW11.3 kmh SW 17.0 mph27.4 kmh 30.14 in1020.7 mb 0.00 in0.0 mm 0.00 in0.0 mm 0.00 in0.0 mm
04:15 PM 25.5°F-3.6°C 17.4°F-8.1°C 71% 7.0 mph SW11.3 kmh SW 17.0 mph27.4 kmh 30.14 in1020.7 mb 0.00 in0.0 mm 0.00 in0.0 mm 0.00 in0.0 mm
04:30 PM 25.5°F-3.6°C 18.1°F-7.7°C 73% 6.0 mph SW9.7 kmh SW 16.0 mph25.7 kmh 30.13 in1020.3 mb 0.00 in0.0 mm 0.00 in0.0 mm 0.00 in0.0 mm
04:45 PM 25.9°F-3.4°C 18.4°F-7.6°C 73% 6.0 mph SW9.7 kmh SW 14.0 mph22.5 kmh 30.12 in1020.0 mb 0.00 in0.0 mm 0.00 in0.0 mm 0.00 in0.0 mm
05:00 PM 25.9°F-3.4°C 18.7°F-7.4°C 74% 5.0 mph SSW8.0 kmh SSW 14.0 mph22.5 kmh 30.12 in1020.0 mb 0.00 in0.0 mm 0.00 in0.0 mm 0.00 in0.0 mm
05:15 PM 26.1°F-3.3°C 18.9°F-7.3°C 74% 5.0 mph SSW8.0 kmh SSW 12.0 mph19.3 kmh 30.11 in1019.6 mb 0.00 in0.0 mm 0.00 in0.0 mm 0.00 in0.0 mm
05:30 PM 26.1°F-3.3°C 19.5°F-6.9°C 76% 5.0 mph SSW8.0 kmh SSW 13.0 mph20.9 kmh 30.10 in1019.3 mb 0.00 in0.0 mm 0.00 in0.0 mm 0.00 in0.0 mm
05:45 PM 26.1°F-3.3°C 20.1°F-6.6°C 78% 6.0 mph SSW9.7 kmh SSW 13.0 mph20.9 kmh 30.09 in1019.0 mb 0.00 in0.0 mm 0.00 in0.0 mm 0.00 in0.0 mm
06:00 PM 25.9°F-3.4°C 20.0°F-6.7°C 78% 6.0 mph SSW9.7 kmh SSW 14.0 mph22.5 kmh 30.08 in1018.6 mb 0.00 in0.0 mm 0.00 in0.0 mm 0.00 in0.0 mm
06:15 PM 25.9°F-3.4°C 20.0°F-6.7°C 78% 6.0 mph SSW9.7 kmh SSW 15.0 mph24.1 kmh 30.07 in1018.3 mb 0.00 in0.0 mm 0.00 in0.0 mm 0.00 in0.0 mm
06:30 PM 26.1°F-3.3°C 20.1°F-6.6°C 78% 5.0 mph SSW8.0 kmh SSW 14.0 mph22.5 kmh 30.07 in1018.3 mb 0.00 in0.0 mm 0.00 in0.0 mm 0.00 in0.0 mm
06:45 PM 26.1°F-3.3°C 20.4°F-6.4°C 79% 5.0 mph SSW8.0 kmh SSW 17.0 mph27.4 kmh 30.07 in1018.3 mb 0.00 in0.0 mm 0.00 in0.0 mm 0.00 in0.0 mm
07:00 PM 26.2°F-3.2°C 20.3°F-6.5°C 78% 5.0 mph SSW8.0 kmh SSW 15.0 mph24.1 kmh 30.06 in1017.9 mb 0.00 in0.0 mm 0.00 in0.0 mm 0.00 in0.0 mm
07:15 PM 26.6°F-3.0°C 20.4°F-6.4°C 77% 5.0 mph SSW8.0 kmh SSW 12.0 mph19.3 kmh 30.06 in1017.9 mb 0.00 in0.0 mm 0.00 in0.0 mm 0.00 in0.0 mm
07:30 PM 26.8°F-2.9°C 20.5°F-6.4°C 77% 7.0 mph SSW11.3 kmh SSW 16.0 mph25.7 kmh 30.04 in1017.3 mb 0.00 in0.0 mm 0.00 in0.0 mm 0.00 in0.0 mm
07:45 PM 27.1°F-2.7°C 19.9°F-6.7°C 74% 6.0 mph SSW9.7 kmh SSW 13.0 mph20.9 kmh 30.03 in1016.9 mb 0.00 in0.0 mm 0.00 in0.0 mm 0.00 in0.0 mm
08:00 PM 27.7°F-2.4°C 19.5°F-6.9°C 71% 7.0 mph S11.3 kmh S 15.0 mph24.1 kmh 30.02 in1016.6 mb 0.00 in0.0 mm 0.00 in0.0 mm 0.00 in0.0 mm
08:15 PM 28.4°F-2.0°C 19.2°F-7.1°C 68% 10.0 mph S16.1 kmh S 19.0 mph30.6 kmh 30.01 in1016.3 mb 0.00 in0.0 mm 0.00 in0.0 mm 0.00 in0.0 mm
08:30 PM 28.4°F-2.0°C 20.8°F-6.2°C 73% 9.0 mph S14.5 kmh S 17.0 mph27.4 kmh 30.01 in1016.3 mb 0.00 in0.0 mm 0.00 in0.0 mm 0.00 in0.0 mm
08:45 PM 28.0°F-2.2°C 22.4°F-5.3°C 79% 9.0 mph SW14.5 kmh SW 20.0 mph32.2 kmh 30.00 in1015.9 mb 0.00 in0.0 mm 0.00 in0.0 mm 0.00 in0.0 mm
09:00 PM 27.7°F-2.4°C 22.9°F-5.1°C 82% 9.0 mph SSW14.5 kmh SSW 18.0 mph29.0 kmh 29.99 in1015.6 mb 0.00 in0.0 mm 0.00 in0.0 mm 0.00 in0.0 mm
09:15 PM 27.9°F-2.3°C 23.7°F-4.6°C 84% 10.0 mph SSW16.1 kmh SSW 22.0 mph35.4 kmh 29.98 in1015.2 mb 0.00 in0.0 mm 0.00 in0.0 mm 0.00 in0.0 mm
09:30 PM 27.9°F-2.3°C 23.9°F-4.5°C 85% 10.0 mph SSW16.1 kmh SSW 20.0 mph32.2 kmh 29.98 in1015.2 mb 0.00 in0.0 mm 0.00 in0.0 mm 0.00 in0.0 mm
09:45 PM 28.0°F-2.2°C 24.4°F-4.2°C 86% 8.0 mph SSW12.9 kmh SSW 22.0 mph35.4 kmh 29.98 in1015.2 mb 0.00 in0.0 mm 0.00 in0.0 mm 0.00 in0.0 mm
10:00 PM 28.6°F-1.9°C 24.6°F-4.1°C 85% 10.0 mph SSW16.1 kmh SSW 20.0 mph32.2 kmh 29.96 in1014.6 mb 0.00 in0.0 mm 0.00 in0.0 mm 0.00 in0.0 mm
10:15 PM 28.6°F-1.9°C 24.6°F-4.1°C 85% 9.0 mph SSW14.5 kmh SSW 19.0 mph30.6 kmh 29.96 in1014.6 mb 0.00 in0.0 mm 0.00 in0.0 mm 0.00 in0.0 mm
10:30 PM 28.9°F-1.7°C 24.7°F-4.1°C 84% 10.0 mph SW16.1 kmh SW 23.0 mph37.0 kmh 29.95 in1014.2 mb 0.00 in0.0 mm 0.00 in0.0 mm 0.00 in0.0 mm
10:45 PM 29.1°F-1.6°C 24.3°F-4.3°C 82% 11.0 mph SSW17.7 kmh SSW 22.0 mph35.4 kmh 29.95 in1014.2 mb 0.00 in0.0 mm 0.00 in0.0 mm 0.00 in0.0 mm
11:00 PM 29.1°F-1.6°C 24.0°F-4.4°C 81% 11.0 mph SSW17.7 kmh SSW 21.0 mph33.8 kmh 29.94 in1013.9 mb 0.00 in0.0 mm 0.00 in0.0 mm 0.00 in0.0 mm
11:15 PM 29.7°F-1.3°C 23.6°F-4.7°C 78% 8.0 mph SSW12.9 kmh SSW 22.0 mph35.4 kmh 29.92 in1013.2 mb 0.00 in0.0 mm 0.00 in0.0 mm 0.00 in0.0 mm
11:30 PM 30.4°F-0.9°C 22.4°F-5.3°C 72% 7.0 mph SSW11.3 kmh SSW 16.0 mph25.7 kmh 29.91 in1012.9 mb 0.00 in0.0 mm 0.00 in0.0 mm 0.00 in0.0 mm
11:45 PM 30.9°F-0.6°C 21.6°F-5.8°C 68% 6.0 mph SSW9.7 kmh SSW 17.0 mph27.4 kmh 29.91 in1012.9 mb 0.00 in0.0 mm 0.00 in0.0 mm 0.00 in0.0 mm